sensor_id;sensor_type;location;lat;lon;timestamp;pressure;altitude;pressure_sealevel;temperature;humidity
12987;BME280;58897;51.960;5.582;2023-04-05T00:02:17;102191.66;;;4.95;100.00
12987;BME280;58897;51.960;5.582;2023-04-05T00:04:50;102190.72;;;4.96;100.00
12987;BME280;58897;51.960;5.582;2023-04-05T00:07:20;102190.03;;;4.93;100.00
12987;BME280;58897;51.960;5.582;2023-04-05T00:09:48;102186.25;;;4.97;100.00
12987;BME280;58897;51.960;5.582;2023-04-05T00:12:18;102185.88;;;5.03;100.00
12987;BME280;58897;51.960;5.582;2023-04-05T00:14:46;102195.13;;;5.12;100.00
12987;BME280;58897;51.960;5.582;2023-04-05T00:17:14;102188.81;;;4.98;100.00
12987;BME280;58897;51.960;5.582;2023-04-05T00:19:45;102186.44;;;4.94;100.00
12987;BME280;58897;51.960;5.582;2023-04-05T00:22:28;102178.69;;;4.89;100.00
12987;BME280;58897;51.960;5.582;2023-04-05T00:24:58;102178.28;;;4.81;100.00
12987;BME280;58897;51.960;5.582;2023-04-05T00:27:27;102180.75;;;4.70;100.00
12987;BME280;58897;51.960;5.582;2023-04-05T00:29:54;102179.81;;;4.71;100.00
12987;BME280;58897;51.960;5.582;2023-04-05T00:32:21;102178.44;;;4.64;100.00
12987;BME280;58897;51.960;5.582;2023-04-05T00:34:49;102173.97;;;4.65;100.00
12987;BME280;58897;51.960;5.582;2023-04-05T00:37:17;102172.25;;;4.78;100.00
12987;BME280;58897;51.960;5.582;2023-04-05T00:39:46;102181.31;;;4.61;100.00
12987;BME280;58897;51.960;5.582;2023-04-05T00:42:13;102177.50;;;4.65;100.00
12987;BME280;58897;51.960;5.582;2023-04-05T00:44:40;102175.59;;;4.67;100.00
12987;BME280;58897;51.960;5.582;2023-04-05T00:47:07;102176.06;;;4.60;100.00
12987;BME280;58897;51.960;5.582;2023-04-05T00:49:38;102170.88;;;4.57;100.00
12987;BME280;58897;51.960;5.582;2023-04-05T00:52:05;102166.56;;;4.54;100.00
12987;BME280;58897;51.960;5.582;2023-04-05T00:54:35;102167.31;;;4.42;100.00
12987;BME280;58897;51.960;5.582;2023-04-05T00:57:05;102169.44;;;4.51;100.00
12987;BME280;58897;51.960;5.582;2023-04-05T00:59:32;102162.19;;;4.67;100.00
12987;BME280;58897;51.960;5.582;2023-04-05T01:02:07;102160.94;;;4.45;100.00
12987;BME280;58897;51.960;5.582;2023-04-05T01:04:40;102151.16;;;4.44;100.00
12987;BME280;58897;51.960;5.582;2023-04-05T01:07:20;102153.84;;;4.44;100.00
12987;BME280;58897;51.960;5.582;2023-04-05T01:09:58;102163.50;;;4.46;100.00
12987;BME280;58897;51.960;5.582;2023-04-05T01:12:31;102159.25;;;4.28;100.00
12987;BME280;58897;51.960;5.582;2023-04-05T01:15:00;102162.84;;;4.43;100.00
12987;BME280;58897;51.960;5.582;2023-04-05T01:17:30;102161.66;;;4.32;100.00
12987;BME280;58897;51.960;5.582;2023-04-05T01:20:07;102158.53;;;4.40;100.00
12987;BME280;58897;51.960;5.582;2023-04-05T01:23:09;102147.03;;;4.24;100.00
12987;BME280;58897;51.960;5.582;2023-04-05T01:31:52;102146.50;;;4.17;100.00
12987;BME280;58897;51.960;5.582;2023-04-05T01:37:19;102131.44;;;4.16;100.00
12987;BME280;58897;51.960;5.582;2023-04-05T01:39:54;102138.22;;;4.22;100.00
12987;BME280;58897;51.960;5.582;2023-04-05T01:42:24;102140.31;;;4.17;100.00
12987;BME280;58897;51.960;5.582;2023-04-05T01:44:53;102139.69;;;3.98;100.00
12987;BME280;58897;51.960;5.582;2023-04-05T01:47:24;102137.31;;;4.07;100.00
12987;BME280;58897;51.960;5.582;2023-04-05T01:49:54;102141.44;;;4.13;100.00
12987;BME280;58897;51.960;5.582;2023-04-05T01:52:23;102138.22;;;4.22;100.00
12987;BME280;58897;51.960;5.582;2023-04-05T01:54:54;102129.00;;;4.27;100.00
12987;BME280;58897;51.960;5.582;2023-04-05T01:57:22;102129.69;;;4.15;100.00
12987;BME280;58897;51.960;5.582;2023-04-05T01:59:50;102130.75;;;4.13;100.00
12987;BME280;58897;51.960;5.582;2023-04-05T02:02:17;102130.50;;;4.02;100.00
12987;BME280;58897;51.960;5.582;2023-04-05T02:04:45;102128.84;;;4.15;100.00
12987;BME280;58897;51.960;5.582;2023-04-05T02:07:12;102125.72;;;3.93;100.00
12987;BME280;58897;51.960;5.582;2023-04-05T02:09:39;102121.81;;;3.98;100.00
12987;BME280;58897;51.960;5.582;2023-04-05T02:12:09;102116.25;;;3.87;100.00
12987;BME280;58897;51.960;5.582;2023-04-05T02:14:36;102113.69;;;4.00;100.00
12987;BME280;58897;51.960;5.582;2023-04-05T02:17:06;102116.34;;;3.86;100.00
12987;BME280;58897;51.960;5.582;2023-04-05T02:19:33;102118.50;;;3.79;100.00
12987;BME280;58897;51.960;5.582;2023-04-05T02:22:07;102106.41;;;3.88;100.00
12987;BME280;58897;51.960;5.582;2023-04-05T02:24:34;102108.84;;;3.77;100.00
12987;BME280;58897;51.960;5.582;2023-04-05T02:27:05;102111.34;;;3.80;100.00
12987;BME280;58897;51.960;5.582;2023-04-05T02:29:33;102112.38;;;3.77;100.00
12987;BME280;58897;51.960;5.582;2023-04-05T02:32:03;102103.34;;;3.94;100.00
12987;BME280;58897;51.960;5.582;2023-04-05T02:34:31;102101.88;;;3.74;100.00
12987;BME280;58897;51.960;5.582;2023-04-05T02:36:59;102101.78;;;3.60;100.00
12987;BME280;58897;51.960;5.582;2023-04-05T02:39:28;102097.84;;;3.67;100.00
12987;BME280;58897;51.960;5.582;2023-04-05T02:41:55;102098.78;;;3.66;100.00
12987;BME280;58897;51.960;5.582;2023-04-05T02:44:22;102104.22;;;3.64;100.00
12987;BME280;58897;51.960;5.582;2023-04-05T02:46:49;102095.34;;;3.64;100.00
12987;BME280;58897;51.960;5.582;2023-04-05T02:49:16;102099.13;;;3.60;100.00
12987;BME280;58897;51.960;5.582;2023-04-05T02:51:46;102094.63;;;3.60;100.00
12987;BME280;58897;51.960;5.582;2023-04-05T02:54:13;102096.72;;;3.55;100.00
12987;BME280;58897;51.960;5.582;2023-04-05T02:56:43;102094.31;;;3.51;100.00
12987;BME280;58897;51.960;5.582;2023-04-05T02:59:10;102092.25;;;3.56;100.00
12987;BME280;58897;51.960;5.582;2023-04-05T03:01:41;102088.94;;;3.66;100.00
12987;BME280;58897;51.960;5.582;2023-04-05T03:04:10;102085.69;;;3.61;100.00
12987;BME280;58897;51.960;5.582;2023-04-05T03:06:38;102082.56;;;3.69;100.00
12987;BME280;58897;51.960;5.582;2023-04-05T03:09:05;102085.00;;;3.58;100.00
12987;BME280;58897;51.960;5.582;2023-04-05T03:11:33;102081.66;;;3.54;100.00
12987;BME280;58897;51.960;5.582;2023-04-05T03:14:00;102080.69;;;3.55;100.00
12987;BME280;58897;51.960;5.582;2023-04-05T03:16:30;102076.81;;;3.45;100.00
12987;BME280;58897;51.960;5.582;2023-04-05T03:18:57;102079.41;;;3.47;100.00
12987;BME280;58897;51.960;5.582;2023-04-05T03:21:25;102079.78;;;3.41;100.00
12987;BME280;58897;51.960;5.582;2023-04-05T03:23:52;102082.19;;;3.30;100.00
12987;BME280;58897;51.960;5.582;2023-04-05T03:26:18;102079.50;;;3.30;100.00
12987;BME280;58897;51.960;5.582;2023-04-05T03:28:45;102074.91;;;3.47;100.00
12987;BME280;58897;51.960;5.582;2023-04-05T03:31:12;102068.28;;;3.54;100.00
12987;BME280;58897;51.960;5.582;2023-04-05T03:33:38;102067.88;;;3.46;100.00
12987;BME280;58897;51.960;5.582;2023-04-05T03:36:05;102071.66;;;3.42;100.00
12987;BME280;58897;51.960;5.582;2023-04-05T03:38:32;102067.88;;;3.31;100.00
12987;BME280;58897;51.960;5.582;2023-04-05T03:41:01;102065.81;;;3.20;100.00
12987;BME280;58897;51.960;5.582;2023-04-05T03:43:31;102071.00;;;3.23;100.00
12987;BME280;58897;51.960;5.582;2023-04-05T03:46:04;102069.97;;;3.26;100.00
12987;BME280;58897;51.960;5.582;2023-04-05T03:48:31;102065.72;;;3.37;100.00
12987;BME280;58897;51.960;5.582;2023-04-05T03:50:58;102068.56;;;3.03;100.00
12987;BME280;58897;51.960;5.582;2023-04-05T03:53:29;102061.09;;;2.94;100.00
12987;BME280;58897;51.960;5.582;2023-04-05T03:55:56;102059.69;;;3.02;100.00
12987;BME280;58897;51.960;5.582;2023-04-05T03:58:26;102062.63;;;3.13;100.00
12987;BME280;58897;51.960;5.582;2023-04-05T04:00:54;102056.50;;;2.96;100.00
12987;BME280;58897;51.960;5.582;2023-04-05T04:03:22;102056.94;;;2.88;100.00
12987;BME280;58897;51.960;5.582;2023-04-05T04:05:51;102053.56;;;3.00;100.00
12987;BME280;58897;51.960;5.582;2023-04-05T04:08:18;102061.09;;;2.94;100.00
12987;BME280;58897;51.960;5.582;2023-04-05T04:10:45;102054.28;;;2.88;100.00
12987;BME280;58897;51.960;5.582;2023-04-05T04:13:12;102062.44;;;2.70;100.00
12987;BME280;58897;51.960;5.582;2023-04-05T04:15:39;102055.63;;;2.80;100.00
12987;BME280;58897;51.960;5.582;2023-04-05T04:18:06;102055.72;;;2.78;100.00
12987;BME280;58897;51.960;5.582;2023-04-05T04:20:33;102055.19;;;2.72;100.00
12987;BME280;58897;51.960;5.582;2023-04-05T04:23:07;102051.66;;;2.71;100.00
12987;BME280;58897;51.960;5.582;2023-04-05T04:25:39;102060.72;;;2.84;100.00
12987;BME280;58897;51.960;5.582;2023-04-05T04:28:11;102060.09;;;2.79;100.00
12987;BME280;58897;51.960;5.582;2023-04-05T04:30:39;102058.72;;;2.72;100.00
12987;BME280;58897;51.960;5.582;2023-04-05T04:33:09;102057.34;;;2.65;100.00
12987;BME280;58897;51.960;5.582;2023-04-05T04:35:36;102064.91;;;2.57;100.00
12987;BME280;58897;51.960;5.582;2023-04-05T04:38:07;102052.50;;;2.56;100.00
12987;BME280;58897;51.960;5.582;2023-04-05T04:40:37;102052.53;;;2.72;100.00
12987;BME280;58897;51.960;5.582;2023-04-05T04:43:13;102043.59;;;2.73;100.00
12987;BME280;58897;51.960;5.582;2023-04-05T04:45:47;102047.44;;;2.67;100.00
12987;BME280;58897;51.960;5.582;2023-04-05T04:48:19;102053.94;;;2.46;100.00
12987;BME280;58897;51.960;5.582;2023-04-05T04:50:51;102047.72;;;2.63;100.00
12987;BME280;58897;51.960;5.582;2023-04-05T04:53:23;102051.66;;;2.71;100.00
12987;BME280;58897;51.960;5.582;2023-04-05T04:55:50;102053.31;;;2.74;100.00
12987;BME280;58897;51.960;5.582;2023-04-05T04:58:17;102054.69;;;2.65;100.00
12987;BME280;58897;51.960;5.582;2023-04-05T05:00:46;102060.66;;;2.53;100.00
12987;BME280;58897;51.960;5.582;2023-04-05T05:03:15;102061.38;;;2.57;100.00
12987;BME280;58897;51.960;5.582;2023-04-05T05:05:43;102051.75;;;2.70;100.00
12987;BME280;58897;51.960;5.582;2023-04-05T05:08:13;102053.56;;;2.69;100.00
12987;BME280;58897;51.960;5.582;2023-04-05T05:10:52;102056.63;;;2.62;100.00
12987;BME280;58897;51.960;5.582;2023-04-05T05:13:22;102050.97;;;2.68;100.00
12987;BME280;58897;51.960;5.582;2023-04-05T05:15:53;102059.13;;;2.49;100.00
12987;BME280;58897;51.960;5.582;2023-04-05T05:18:21;102051.25;;;2.63;100.00
12987;BME280;58897;51.960;5.582;2023-04-05T05:20:59;102053.88;;;2.47;100.00
12987;BME280;58897;51.960;5.582;2023-04-05T05:23:26;102053.28;;;2.58;100.00
12987;BME280;58897;51.960;5.582;2023-04-05T05:25:58;102060.22;;;2.45;100.00
12987;BME280;58897;51.960;5.582;2023-04-05T05:28:30;102054.56;;;2.51;100.00
12987;BME280;58897;51.960;5.582;2023-04-05T05:30:58;102051.72;;;2.54;100.00
12987;BME280;58897;51.960;5.582;2023-04-05T05:33:26;102051.69;;;2.38;100.00
12987;BME280;58897;51.960;5.582;2023-04-05T05:35:54;102054.19;;;2.41;100.00
12987;BME280;58897;51.960;5.582;2023-04-05T05:38:22;102051.59;;;2.40;100.00
12987;BME280;58897;51.960;5.582;2023-04-05T05:40:56;102049.91;;;2.55;100.00
12987;BME280;58897;51.960;5.582;2023-04-05T05:43:28;102043.84;;;2.68;100.00
12987;BME280;58897;51.960;5.582;2023-04-05T05:45:59;102042.66;;;2.74;100.00
12987;BME280;58897;51.960;5.582;2023-04-05T05:48:28;102041.06;;;2.70;100.00
12987;BME280;58897;51.960;5.582;2023-04-05T05:51:01;102041.94;;;2.70;100.00
12987;BME280;58897;51.960;5.582;2023-04-05T05:53:40;102042.81;;;2.71;100.00
12987;BME280;58897;51.960;5.582;2023-04-05T05:56:10;102044.78;;;2.83;100.00
12987;BME280;58897;51.960;5.582;2023-04-05T05:58:41;102047.47;;;2.83;100.00
12987;BME280;58897;51.960;5.582;2023-04-05T06:01:14;102044.63;;;2.86;100.00
12987;BME280;58897;51.960;5.582;2023-04-05T06:03:58;102045.56;;;3.00;100.00
12987;BME280;58897;51.960;5.582;2023-04-05T06:06:29;102043.28;;;3.10;100.00
12987;BME280;58897;51.960;5.582;2023-04-05T06:09:03;102046.53;;;2.99;100.00
12987;BME280;58897;51.960;5.582;2023-04-05T06:11:32;102042.41;;;3.09;100.00
12987;BME280;58897;51.960;5.582;2023-04-05T06:14:22;102052.81;;;3.14;100.00
12987;BME280;58897;51.960;5.582;2023-04-05T06:16:52;102055.81;;;2.92;100.00
12987;BME280;58897;51.960;5.582;2023-04-05T06:19:29;102049.38;;;2.96;100.00
12987;BME280;58897;51.960;5.582;2023-04-05T06:22:00;102051.00;;;3.15;100.00
12987;BME280;58897;51.960;5.582;2023-04-05T06:24:28;102055.16;;;3.04;100.00
12987;BME280;58897;51.960;5.582;2023-04-05T06:26:57;102053.50;;;3.02;100.00
12987;BME280;58897;51.960;5.582;2023-04-05T06:29:25;102050.41;;;3.25;100.00
12987;BME280;58897;51.960;5.582;2023-04-05T06:31:54;102052.22;;;3.25;100.00
12987;BME280;58897;51.960;5.582;2023-04-05T06:34:23;102053.31;;;3.36;100.00
12987;BME280;58897;51.960;5.582;2023-04-05T06:36:50;102055.78;;;3.55;100.00
12987;BME280;58897;51.960;5.582;2023-04-05T06:39:17;102055.06;;;3.67;100.00
12987;BME280;58897;51.960;5.582;2023-04-05T06:41:44;102055.94;;;3.67;100.00
12987;BME280;58897;51.960;5.582;2023-04-05T06:44:11;102050.72;;;3.80;100.00
12987;BME280;58897;51.960;5.582;2023-04-05T06:46:38;102057.94;;;4.08;100.00
12987;BME280;58897;51.960;5.582;2023-04-05T06:49:04;102064.44;;;4.04;100.00
12987;BME280;58897;51.960;5.582;2023-04-05T06:51:31;102061.72;;;4.19;100.00
12987;BME280;58897;51.960;5.582;2023-04-05T06:53:58;102061.13;;;4.14;100.00
12987;BME280;58897;51.960;5.582;2023-04-05T06:56:27;102057.53;;;4.29;100.00
12987;BME280;58897;51.960;5.582;2023-04-05T06:58:56;102057.34;;;4.32;100.00
12987;BME280;58897;51.960;5.582;2023-04-05T07:01:24;102054.84;;;4.44;100.00
12987;BME280;58897;51.960;5.582;2023-04-05T07:03:52;102048.38;;;4.48;100.00
12987;BME280;58897;51.960;5.582;2023-04-05T07:06:20;102070.63;;;4.62;100.00
12987;BME280;58897;51.960;5.582;2023-04-05T07:08:49;102063.91;;;4.69;100.00
12987;BME280;58897;51.960;5.582;2023-04-05T07:11:15;102058.00;;;4.78;100.00
12987;BME280;58897;51.960;5.582;2023-04-05T07:13:42;102059.06;;;4.90;100.00
12987;BME280;58897;51.960;5.582;2023-04-05T07:16:08;102057.19;;;5.19;100.00
12987;BME280;58897;51.960;5.582;2023-04-05T07:18:35;102053.69;;;5.31;100.00
12987;BME280;58897;51.960;5.582;2023-04-05T07:21:01;102055.69;;;5.41;100.00
12987;BME280;58897;51.960;5.582;2023-04-05T07:23:29;102050.84;;;5.73;100.00
12987;BME280;58897;51.960;5.582;2023-04-05T07:26:02;102048.28;;;6.11;100.00
12987;BME280;58897;51.960;5.582;2023-04-05T07:28:34;102049.59;;;6.31;100.00
12987;BME280;58897;51.960;5.582;2023-04-05T07:31:02;102048.50;;;6.46;100.00
12987;BME280;58897;51.960;5.582;2023-04-05T07:33:29;102048.44;;;6.96;100.00
12987;BME280;58897;51.960;5.582;2023-04-05T07:35:56;102049.53;;;7.54;100.00
12987;BME280;58897;51.960;5.582;2023-04-05T07:38:24;102049.75;;;8.09;100.00
12987;BME280;58897;51.960;5.582;2023-04-05T07:40:51;102051.44;;;8.56;97.78
12987;BME280;58897;51.960;5.582;2023-04-05T07:43:18;102037.00;;;9.12;94.26
12987;BME280;58897;51.960;5.582;2023-04-05T07:45:48;102037.56;;;9.38;93.67
12987;BME280;58897;51.960;5.582;2023-04-05T07:48:14;102034.91;;;9.16;89.79
12987;BME280;58897;51.960;5.582;2023-04-05T07:50:41;102037.22;;;9.63;89.35
12987;BME280;58897;51.960;5.582;2023-04-05T07:53:13;102028.94;;;9.44;81.89
12987;BME280;58897;51.960;5.582;2023-04-05T07:55:40;102034.38;;;9.65;80.83
12987;BME280;58897;51.960;5.582;2023-04-05T07:58:07;102035.06;;;9.99;81.46
12987;BME280;58897;51.960;5.582;2023-04-05T08:00:34;102025.47;;;10.37;78.77
12987;BME280;58897;51.960;5.582;2023-04-05T08:03:00;102031.78;;;10.27;78.72
12987;BME280;58897;51.960;5.582;2023-04-05T08:05:28;102032.88;;;10.45;78.89
12987;BME280;58897;51.960;5.582;2023-04-05T08:07:55;102026.91;;;11.21;74.05
12987;BME280;58897;51.960;5.582;2023-04-05T08:10:24;102035.00;;;11.11;71.64
12987;BME280;58897;51.960;5.582;2023-04-05T08:13:14;102034.66;;;11.45;69.59
12987;BME280;58897;51.960;5.582;2023-04-05T08:15:41;102042.53;;;11.08;67.10
12987;BME280;58897;51.960;5.582;2023-04-05T08:18:08;102033.94;;;11.33;69.60
12987;BME280;58897;51.960;5.582;2023-04-05T08:20:37;102031.16;;;11.92;64.21
12987;BME280;58897;51.960;5.582;2023-04-05T08:23:05;102027.84;;;12.08;60.07
12987;BME280;58897;51.960;5.582;2023-04-05T08:25:31;102029.38;;;12.49;59.98
12987;BME280;58897;51.960;5.582;2023-04-05T08:27:58;102030.59;;;11.69;59.72
12987;BME280;58897;51.960;5.582;2023-04-05T08:30:25;102032.41;;;12.17;60.45
12987;BME280;58897;51.960;5.582;2023-04-05T08:32:52;102034.84;;;12.66;59.47
12987;BME280;58897;51.960;5.582;2023-04-05T08:35:19;102021.97;;;12.78;51.66
12987;BME280;58897;51.960;5.582;2023-04-05T08:37:47;102024.47;;;12.89;52.17
12987;BME280;58897;51.960;5.582;2023-04-05T08:40:14;102018.31;;;12.96;48.85
12987;BME280;58897;51.960;5.582;2023-04-05T08:42:47;102025.66;;;12.40;48.80
12987;BME280;58897;51.960;5.582;2023-04-05T08:45:18;102023.00;;;11.54;51.00
12987;BME280;58897;51.960;5.582;2023-04-05T08:47:47;102022.28;;;12.65;51.13
12987;BME280;58897;51.960;5.582;2023-04-05T08:50:15;102024.22;;;12.36;53.64
12987;BME280;58897;51.960;5.582;2023-04-05T08:52:45;102006.84;;;13.12;53.67
12987;BME280;58897;51.960;5.582;2023-04-05T08:55:15;102014.28;;;13.73;51.67
12987;BME280;58897;51.960;5.582;2023-04-05T08:57:44;102018.06;;;13.80;45.84
12987;BME280;58897;51.960;5.582;2023-04-05T09:00:15;102012.94;;;12.87;45.87
12987;BME280;58897;51.960;5.582;2023-04-05T09:02:47;102013.84;;;14.03;48.62
12987;BME280;58897;51.960;5.582;2023-04-05T09:05:17;102010.38;;;13.75;49.26
12987;BME280;58897;51.960;5.582;2023-04-05T09:07:46;102009.28;;;14.47;47.27
12987;BME280;58897;51.960;5.582;2023-04-05T09:10:13;102010.84;;;14.49;44.94
12987;BME280;58897;51.960;5.582;2023-04-05T09:12:40;102008.38;;;14.38;47.41
12987;BME280;58897;51.960;5.582;2023-04-05T09:15:07;102010.03;;;15.40;44.04
12987;BME280;58897;51.960;5.582;2023-04-05T09:17:37;102006.72;;;15.63;41.73
12987;BME280;58897;51.960;5.582;2023-04-05T09:20:04;102003.50;;;14.75;40.91
12987;BME280;58897;51.960;5.582;2023-04-05T09:22:41;102005.81;;;14.37;40.84
12987;BME280;58897;51.960;5.582;2023-04-05T09:25:08;102005.59;;;12.97;43.16
12987;BME280;58897;51.960;5.582;2023-04-05T09:27:34;102002.41;;;14.35;42.86
12987;BME280;58897;51.960;5.582;2023-04-05T09:30:01;101999.63;;;15.36;42.48
12987;BME280;58897;51.960;5.582;2023-04-05T09:32:27;101996.47;;;15.57;42.10
12987;BME280;58897;51.960;5.582;2023-04-05T09:35:00;101997.75;;;14.53;38.17
12987;BME280;58897;51.960;5.582;2023-04-05T09:37:29;102001.75;;;15.00;42.03
12987;BME280;58897;51.960;5.582;2023-04-05T09:40:01;101990.97;;;14.82;36.79
12987;BME280;58897;51.960;5.582;2023-04-05T09:42:33;101998.97;;;15.42;36.52
12987;BME280;58897;51.960;5.582;2023-04-05T09:45:08;101992.09;;;14.72;36.65
12987;BME280;58897;51.960;5.582;2023-04-05T09:47:35;101997.94;;;14.85;36.52
12987;BME280;58897;51.960;5.582;2023-04-05T09:52:40;101997.69;;;15.04;38.24
12987;BME280;58897;51.960;5.582;2023-04-05T09:55:07;101987.38;;;16.69;34.57
12987;BME280;58897;51.960;5.582;2023-04-05T09:57:37;101992.59;;;15.75;35.84
12987;BME280;58897;51.960;5.582;2023-04-05T10:00:05;101983.16;;;16.97;33.83
12987;BME280;58897;51.960;5.582;2023-04-05T10:02:38;101974.47;;;17.02;33.64
12987;BME280;58897;51.960;5.582;2023-04-05T10:05:07;101976.59;;;15.88;33.59
12987;BME280;58897;51.960;5.582;2023-04-05T10:07:37;101981.88;;;15.74;34.67
12987;BME280;58897;51.960;5.582;2023-04-05T10:10:04;101967.25;;;17.40;34.08
12987;BME280;58897;51.960;5.582;2023-04-05T10:12:31;101970.38;;;16.98;32.86
12987;BME280;58897;51.960;5.582;2023-04-05T10:14:58;101976.56;;;16.21;32.91
12987;BME280;58897;51.960;5.582;2023-04-05T10:17:38;101959.94;;;17.09;33.27
12987;BME280;58897;51.960;5.582;2023-04-05T10:23:16;101959.03;;;16.15;33.75
12987;BME280;58897;51.960;5.582;2023-04-05T10:28:35;101950.53;;;17.88;33.98
12987;BME280;58897;51.960;5.582;2023-04-05T10:31:25;101952.88;;;17.46;33.32
12987;BME280;58897;51.960;5.582;2023-04-05T10:34:05;101947.97;;;16.72;33.72
12987;BME280;58897;51.960;5.582;2023-04-05T10:36:44;101940.06;;;17.92;32.75
12987;BME280;58897;51.960;5.582;2023-04-05T10:39:16;101944.63;;;17.31;32.67
12987;BME280;58897;51.960;5.582;2023-04-05T10:41:52;101941.06;;;17.53;32.13
12987;BME280;58897;51.960;5.582;2023-04-05T10:44:19;101937.31;;;18.29;31.40
12987;BME280;58897;51.960;5.582;2023-04-05T10:46:53;101940.19;;;18.50;32.13
12987;BME280;58897;51.960;5.582;2023-04-05T10:49:25;101939.75;;;16.80;31.91
12987;BME280;58897;51.960;5.582;2023-04-05T10:51:57;101940.63;;;15.93;32.13
12987;BME280;58897;51.960;5.582;2023-04-05T10:54:25;101931.38;;;16.89;33.27
12987;BME280;58897;51.960;5.582;2023-04-05T10:56:52;101933.09;;;16.27;33.02
12987;BME280;58897;51.960;5.582;2023-04-05T10:59:24;101932.22;;;16.35;35.53
12987;BME280;58897;51.960;5.582;2023-04-05T11:01:53;101919.56;;;18.10;32.80
12987;BME280;58897;51.960;5.582;2023-04-05T11:04:21;101911.84;;;18.28;33.50
12987;BME280;58897;51.960;5.582;2023-04-05T11:09:58;101914.72;;;17.83;30.38
12987;BME280;58897;51.960;5.582;2023-04-05T11:20:53;101902.06;;;17.37;30.99
12987;BME280;58897;51.960;5.582;2023-04-05T11:24:09;101899.91;;;17.55;30.75
12987;BME280;58897;51.960;5.582;2023-04-05T11:30:52;101903.53;;;16.94;31.97
12987;BME280;58897;51.960;5.582;2023-04-05T11:33:36;101906.03;;;16.73;31.12
12987;BME280;58897;51.960;5.582;2023-04-05T11:36:04;101898.00;;;17.78;30.48
12987;BME280;58897;51.960;5.582;2023-04-05T11:38:31;101899.03;;;18.14;29.44
12987;BME280;58897;51.960;5.582;2023-04-05T11:41:24;101896.03;;;17.18;30.50
12987;BME280;58897;51.960;5.582;2023-04-05T11:44:01;101891.56;;;17.71;30.61
12987;BME280;58897;51.960;5.582;2023-04-05T11:46:31;101895.34;;;17.70;29.96
12987;BME280;58897;51.960;5.582;2023-04-05T11:48:58;101884.41;;;17.02;31.10
12987;BME280;58897;51.960;5.582;2023-04-05T11:51:25;101877.66;;;16.82;31.53
12987;BME280;58897;51.960;5.582;2023-04-05T11:53:55;101875.19;;;16.17;33.50
12987;BME280;58897;51.960;5.582;2023-04-05T11:56:23;101870.06;;;16.69;32.20
12987;BME280;58897;51.960;5.582;2023-04-05T11:58:51;101871.13;;;16.13;32.19
12987;BME280;58897;51.960;5.582;2023-04-05T12:01:23;101876.31;;;15.52;31.75
12987;BME280;58897;51.960;5.582;2023-04-05T12:03:59;101877.50;;;15.49;32.15
12987;BME280;58897;51.960;5.582;2023-04-05T12:06:33;101875.94;;;14.22;34.02
12987;BME280;58897;51.960;5.582;2023-04-05T12:09:05;101866.06;;;15.21;35.71
12987;BME280;58897;51.960;5.582;2023-04-05T12:11:32;101865.72;;;15.24;32.97
12987;BME280;58897;51.960;5.582;2023-04-05T12:14:00;101855.28;;;16.08;33.45
12987;BME280;58897;51.960;5.582;2023-04-05T12:16:27;101862.50;;;15.45;33.57
12987;BME280;58897;51.960;5.582;2023-04-05T12:18:56;101876.34;;;14.77;35.89
12987;BME280;58897;51.960;5.582;2023-04-05T12:21:24;101866.97;;;14.72;33.12
12987;BME280;58897;51.960;5.582;2023-04-05T12:23:55;101863.16;;;15.07;34.72
12987;BME280;58897;51.960;5.582;2023-04-05T12:26:22;101856.69;;;15.16;34.26
12987;BME280;58897;51.960;5.582;2023-04-05T12:28:54;101857.75;;;14.57;33.96
12987;BME280;58897;51.960;5.582;2023-04-05T12:31:43;101855.16;;;15.05;34.01
12987;BME280;58897;51.960;5.582;2023-04-05T12:34:36;101857.75;;;15.47;33.89
12987;BME280;58897;51.960;5.582;2023-04-05T12:37:03;101849.72;;;14.47;34.17
12987;BME280;58897;51.960;5.582;2023-04-05T12:39:31;101842.19;;;14.83;34.06
12987;BME280;58897;51.960;5.582;2023-04-05T12:41:59;101855.81;;;14.99;34.10
12987;BME280;58897;51.960;5.582;2023-04-05T12:44:27;101844.03;;;14.74;34.05
12987;BME280;58897;51.960;5.582;2023-04-05T12:47:07;101839.94;;;14.62;33.70
12987;BME280;58897;51.960;5.582;2023-04-05T12:49:42;101843.63;;;14.53;33.73
12987;BME280;58897;51.960;5.582;2023-04-05T12:52:30;101825.56;;;15.34;34.50
12987;BME280;58897;51.960;5.582;2023-04-05T12:54:57;101819.41;;;14.92;34.40
12987;BME280;58897;51.960;5.582;2023-04-05T12:57:32;101825.56;;;15.02;35.41
12987;BME280;58897;51.960;5.582;2023-04-05T13:00:09;101824.22;;;15.14;34.73
12987;BME280;58897;51.960;5.582;2023-04-05T13:03:45;101823.47;;;14.30;34.69
12987;BME280;58897;51.960;5.582;2023-04-05T13:06:30;101809.69;;;14.73;34.75
12987;BME280;58897;51.960;5.582;2023-04-05T13:09:00;101811.28;;;15.24;33.07
12987;BME280;58897;51.960;5.582;2023-04-05T13:11:28;101803.44;;;15.05;33.89
12987;BME280;58897;51.960;5.582;2023-04-05T13:14:03;101801.41;;;14.99;33.25
12987;BME280;58897;51.960;5.582;2023-04-05T13:16:33;101796.84;;;15.56;33.32
12987;BME280;58897;51.960;5.582;2023-04-05T13:19:03;101786.09;;;15.63;33.46
12987;BME280;58897;51.960;5.582;2023-04-05T13:21:33;101799.13;;;14.70;33.52
12987;BME280;58897;51.960;5.582;2023-04-05T13:24:01;101798.75;;;13.74;34.79
12987;BME280;58897;51.960;5.582;2023-04-05T13:26:28;101793.56;;;14.80;33.65
12987;BME280;58897;51.960;5.582;2023-04-05T13:28:54;101799.53;;;15.24;33.55
12987;BME280;58897;51.960;5.582;2023-04-05T13:31:26;101784.56;;;15.60;34.50
12987;BME280;58897;51.960;5.582;2023-04-05T13:33:56;101795.50;;;13.70;33.67
12987;BME280;58897;51.960;5.582;2023-04-05T13:36:23;101796.41;;;13.79;35.56
12987;BME280;58897;51.960;5.582;2023-04-05T13:38:49;101779.97;;;13.88;35.04
12987;BME280;58897;51.960;5.582;2023-04-05T13:41:17;101784.28;;;14.33;33.57